Time;durP1;ratioP1;P1;durP2;ratioP2;P2;SDS_P1;SDS_P2;PMS_P1;PMS_P2;Temp;Humidity;BMP_temperature;BMP_pressure;BME280_temperature;BME280_humidity;BME280_pressure;Samples;Min_cycle;Max_cycle;Signal;HPM_P1;HPM_P2
2022/10/23 00:01:49;;;;;;;14.00;12.90;;;10.00;99.90;;;;;;4968003;28;20709;-82
2022/10/23 00:04:18;;;;;;;14.80;13.57;;;9.90;99.90;;;;;;4973857;28;20241;-82
2022/10/23 00:06:45;;;;;;;14.63;13.43;;;9.90;99.90;;;;;;4964452;28;20198;-80
2022/10/23 00:09:14;;;;;;;14.13;12.97;;;9.90;99.90;;;;;;4980559;28;20194;-82
2022/10/23 00:11:43;;;;;;;14.13;12.93;;;9.80;99.90;;;;;;4968891;28;20226;-82
2022/10/23 00:14:10;;;;;;;14.17;13.17;;;9.80;99.90;;;;;;4968101;28;20297;-82
2022/10/23 00:16:37;;;;;;;14.23;13.13;;;9.70;99.90;;;;;;4970713;28;20221;-82
2022/10/23 00:19:06;;;;;;;13.87;12.87;;;9.70;99.90;;;;;;4980879;28;20568;-82
2022/10/23 00:21:33;;;;;;;14.27;13.20;;;9.70;99.90;;;;;;4976402;28;20833;-81
2022/10/23 00:24:00;;;;;;;16.17;13.93;;;9.60;99.90;;;;;;4978752;28;20190;-82
2022/10/23 00:26:27;;;;;;;15.03;13.57;;;9.60;99.90;;;;;;4972597;28;20202;-82
2022/10/23 00:28:54;;;;;;;14.27;12.87;;;9.70;99.90;;;;;;4976177;28;20247;-82
2022/10/23 00:31:23;;;;;;;14.40;13.23;;;9.60;99.90;;;;;;4967181;28;20222;-82
2022/10/23 00:33:50;;;;;;;12.97;12.00;;;9.70;99.90;;;;;;4967130;28;20198;-81
2022/10/23 00:36:20;;;;;;;14.40;13.20;;;9.70;99.90;;;;;;4969635;28;20260;-82
2022/10/23 00:38:48;;;;;;;14.80;13.57;;;9.70;99.90;;;;;;4969050;28;20203;-82
2022/10/23 00:41:17;;;;;;;15.00;13.70;;;9.70;99.90;;;;;;4975394;28;20305;-82
2022/10/23 00:43:59;;;;;;;15.63;14.13;;;9.80;99.90;;;;;;4964306;28;20194;-82
2022/10/23 00:46:26;;;;;;;15.47;14.27;;;9.80;99.90;;;;;;4974805;28;20201;-82
2022/10/23 00:48:53;;;;;;;15.40;14.10;;;9.90;99.90;;;;;;4965805;28;20197;-82
2022/10/23 00:51:22;;;;;;;14.97;13.87;;;9.90;99.90;;;;;;4963394;28;20276;-82
2022/10/23 00:53:55;;;;;;;15.20;13.90;;;10.00;99.90;;;;;;4965717;28;20194;-82
2022/10/23 00:56:22;;;;;;;14.60;13.57;;;10.00;99.90;;;;;;4969602;28;20207;-82
2022/10/23 00:58:49;;;;;;;15.63;14.20;;;10.00;99.90;;;;;;4977355;28;20602;-82
2022/10/23 01:01:17;;;;;;;15.57;14.27;;;10.10;99.90;;;;;;4971490;28;20695;-82
2022/10/23 01:03:44;;;;;;;14.43;13.37;;;10.10;99.90;;;;;;4975476;28;20219;-81
2022/10/23 01:06:16;;;;;;;14.17;13.17;;;10.00;99.90;;;;;;4977982;28;20251;-82
2022/10/23 01:08:51;;;;;;;14.40;13.13;;;10.10;99.90;;;;;;4972027;28;20659;-82
2022/10/23 01:11:25;;;;;;;14.67;13.30;;;10.00;99.90;;;;;;4970484;28;20233;-82
2022/10/23 01:14:01;;;;;;;15.07;13.80;;;9.90;99.90;;;;;;4962780;28;20213;-81
2022/10/23 01:16:36;;;;;;;14.43;13.33;;;9.90;99.90;;;;;;4947012;28;20267;-81
2022/10/23 01:19:11;;;;;;;14.30;13.10;;;9.90;99.90;;;;;;4965849;28;20202;-82
2022/10/23 01:21:47;;;;;;;14.90;13.73;;;10.00;99.90;;;;;;4967556;28;20218;-82
2022/10/23 01:24:27;;;;;;;15.50;14.30;;;9.90;99.90;;;;;;4969038;28;20202;-82
2022/10/23 01:27:16;;;;;;;14.83;13.63;;;10.00;99.90;;;;;;4968331;28;20194;-82
2022/10/23 01:29:46;;;;;;;13.37;12.47;;;10.00;99.90;;;;;;4967545;28;20660;-82
2022/10/23 01:32:17;;;;;;;13.17;12.27;;;10.00;99.90;;;;;;4966161;28;20194;-82
2022/10/23 01:34:48;;;;;;;14.30;13.20;;;10.00;99.90;;;;;;4966361;28;20202;-82
2022/10/23 01:37:20;;;;;;;14.13;13.10;;;10.10;99.90;;;;;;4968640;28;20254;-82
2022/10/23 01:39:52;;;;;;;13.50;12.50;;;10.10;99.90;;;;;;4982805;28;20229;-82
2022/10/23 01:42:24;;;;;;;13.93;12.93;;;10.10;99.90;;;;;;4970468;28;20240;-82
2022/10/23 01:44:58;;;;;;;13.33;12.43;;;10.10;99.90;;;;;;4969756;28;20207;-82
2022/10/23 01:47:28;;;;;;;14.00;12.97;;;10.10;99.90;;;;;;4975985;28;20194;-82
2022/10/23 01:50:03;;;;;;;14.47;13.37;;;10.00;99.90;;;;;;4972893;28;20221;-82
2022/10/23 01:52:30;;;;;;;15.43;13.70;;;9.80;99.90;;;;;;4978193;28;20210;-82
2022/10/23 01:55:00;;;;;;;14.80;13.40;;;9.80;99.90;;;;;;4963046;28;20705;-82
2022/10/23 01:57:32;;;;;;;14.93;13.73;;;9.60;99.90;;;;;;4962322;28;20228;-82
2022/10/23 02:00:03;;;;;;;14.90;13.70;;;9.60;99.90;;;;;;4965103;28;20218;-82
2022/10/23 02:02:33;;;;;;;14.43;13.33;;;9.50;99.90;;;;;;4984257;28;20206;-81
2022/10/23 02:05:06;;;;;;;14.50;13.40;;;9.50;99.90;;;;;;4971702;28;20196;-82
2022/10/23 02:07:34;;;;;;;15.23;13.80;;;9.50;99.90;;;;;;4960041;28;20198;-81
2022/10/23 02:10:12;;;;;;;14.77;13.70;;;9.50;99.90;;;;;;4972965;28;20226;-82
2022/10/23 02:12:49;;;;;;;14.40;13.30;;;9.50;99.90;;;;;;4963433;28;20201;-82
2022/10/23 02:15:23;;;;;;;15.23;13.93;;;9.50;99.90;;;;;;4960713;28;20248;-82
2022/10/23 02:18:01;;;;;;;14.70;13.60;;;9.50;99.90;;;;;;4964992;28;20206;-81
2022/10/23 02:20:34;;;;;;;15.43;14.13;;;9.50;99.90;;;;;;4964950;28;20221;-81
2022/10/23 02:23:08;;;;;;;16.63;14.93;;;9.50;99.90;;;;;;4961496;28;20210;-82
2022/10/23 02:25:43;;;;;;;15.40;14.20;;;9.50;99.90;;;;;;4950547;28;20211;-82
2022/10/23 02:28:19;;;;;;;16.30;14.90;;;9.50;99.90;;;;;;4969366;28;20233;-82
2022/10/23 02:30:49;;;;;;;15.83;14.40;;;9.50;99.90;;;;;;4967216;28;20415;-82
2022/10/23 02:33:16;;;;;;;15.40;14.20;;;9.50;99.90;;;;;;4982752;28;20207;-82
2022/10/23 02:35:45;;;;;;;15.20;14.10;;;9.50;99.90;;;;;;4973587;28;20198;-82
2022/10/23 02:38:30;;;;;;;15.13;13.93;;;9.40;99.90;;;;;;4974660;28;20200;-82
2022/10/23 02:41:02;;;;;;;14.10;13.00;;;9.40;99.90;;;;;;4962278;28;20217;-82
2022/10/23 02:43:37;;;;;;;15.70;14.40;;;9.40;99.90;;;;;;4968255;28;20213;-82
2022/10/23 02:46:10;;;;;;;14.53;13.33;;;9.40;99.90;;;;;;4976425;28;20860;-82
2022/10/23 02:48:45;;;;;;;14.73;13.53;;;9.40;99.90;;;;;;4977176;28;20220;-81
2022/10/23 02:51:18;;;;;;;14.10;13.20;;;9.50;99.90;;;;;;4962415;28;20222;-82
2022/10/23 02:53:56;;;;;;;14.30;13.30;;;9.40;99.90;;;;;;4970500;28;20210;-82
2022/10/23 02:56:30;;;;;;;14.53;13.43;;;9.40;99.90;;;;;;4962219;28;20205;-82
2022/10/23 02:59:05;;;;;;;14.47;13.47;;;9.40;99.90;;;;;;4962076;28;20202;-81
2022/10/23 03:01:38;;;;;;;14.13;13.13;;;9.40;99.90;;;;;;4962217;28;20221;-82
2022/10/23 03:04:06;;;;;;;14.87;13.83;;;9.40;99.90;;;;;;4964736;28;20253;-82
2022/10/23 03:06:33;;;;;;;14.40;13.30;;;9.50;99.90;;;;;;4967944;28;20198;-82
2022/10/23 03:09:07;;;;;;;14.30;13.30;;;9.50;99.90;;;;;;4977813;28;20275;-82
2022/10/23 03:11:34;;;;;;;14.13;13.13;;;9.50;99.90;;;;;;4965616;28;20249;-82
2022/10/23 03:14:02;;;;;;;15.00;13.80;;;9.60;99.90;;;;;;4964402;28;20198;-82
2022/10/23 03:16:29;;;;;;;14.43;13.43;;;9.60;99.90;;;;;;4959699;28;20260;-81
2022/10/23 03:18:56;;;;;;;14.80;13.73;;;9.70;99.90;;;;;;4964914;28;20225;-83
2022/10/23 03:21:24;;;;;;;14.87;13.87;;;9.80;99.90;;;;;;4969287;28;20313;-81
2022/10/23 03:23:53;;;;;;;13.90;13.00;;;9.90;99.90;;;;;;4972705;28;20211;-81
2022/10/23 03:26:28;;;;;;;14.17;13.17;;;9.90;99.90;;;;;;4973074;28;20220;-82
2022/10/23 03:28:55;;;;;;;14.33;13.40;;;10.00;99.90;;;;;;4950202;28;20211;-81
2022/10/23 03:31:25;;;;;;;15.03;13.97;;;10.10;99.90;;;;;;4979347;28;20218;-82
2022/10/23 03:33:56;;;;;;;10.43;9.43;;;10.20;99.90;;;;;;4968926;28;20290;-83
2022/10/23 03:36:23;;;;;;;10.30;9.50;;;10.30;99.90;;;;;;4957631;28;20202;-83
2022/10/23 03:38:51;;;;;;;11.23;10.33;;;10.30;99.90;;;;;;4990604;28;20248;-83
2022/10/23 03:41:18;;;;;;;11.17;10.13;;;10.30;99.90;;;;;;4967277;28;20246;-82
2022/10/23 03:43:45;;;;;;;9.10;8.20;;;10.30;99.90;;;;;;4970828;28;20305;-82
2022/10/23 03:46:12;;;;;;;10.47;9.67;;;10.20;99.90;;;;;;4961395;28;20206;-83
2022/10/23 03:48:40;;;;;;;9.50;8.80;;;10.20;99.90;;;;;;4966494;28;20201;-81
2022/10/23 03:51:08;;;;;;;10.23;9.43;;;10.20;99.90;;;;;;4974192;28;20214;-82
2022/10/23 03:53:35;;;;;;;9.77;8.97;;;10.10;99.90;;;;;;4966431;28;20210;-82
2022/10/23 03:56:04;;;;;;;10.40;9.60;;;10.10;99.90;;;;;;4954293;28;20203;-82
2022/10/23 03:58:31;;;;;;;14.47;13.57;;;10.10;99.90;;;;;;4956976;28;20198;-82
2022/10/23 04:00:58;;;;;;;10.53;9.73;;;10.00;99.90;;;;;;4962365;28;20728;-82
2022/10/23 04:03:25;;;;;;;12.30;11.43;;;9.90;99.90;;;;;;4959689;28;20700;-82
2022/10/23 04:05:53;;;;;;;11.33;8.00;;;9.90;99.90;;;;;;4954154;28;20738;-82
2022/10/23 04:08:22;;;;;;;11.73;9.93;;;9.80;99.90;;;;;;4979358;28;20225;-82
2022/10/23 04:10:53;;;;;;;13.67;12.77;;;9.80;99.90;;;;;;4951483;28;20254;-82
2022/10/23 04:13:26;;;;;;;13.23;12.43;;;9.80;99.90;;;;;;4965600;28;20260;-82
2022/10/23 04:15:53;;;;;;;5.70;5.07;;;9.70;99.90;;;;;;4955457;29;20206;-82
2022/10/23 04:18:20;;;;;;;8.30;7.50;;;9.70;99.90;;;;;;4973294;28;20212;-82
2022/10/23 04:20:48;;;;;;;5.93;5.33;;;9.70;99.90;;;;;;4973473;28;20317;-82
2022/10/23 04:23:17;;;;;;;13.00;12.00;;;9.70;99.90;;;;;;4973176;28;20236;-81
2022/10/23 04:25:46;;;;;;;8.17;7.33;;;9.80;99.90;;;;;;4962255;28;20205;-82
2022/10/23 04:28:13;;;;;;;9.33;8.63;;;9.80;99.90;;;;;;4962029;28;20218;-83
2022/10/23 04:30:41;;;;;;;9.70;8.90;;;9.80;99.90;;;;;;4964186;28;20648;-82
2022/10/23 04:33:10;;;;;;;7.37;6.47;;;9.80;99.90;;;;;;4958402;28;20187;-83
2022/10/23 04:35:37;;;;;;;8.10;7.50;;;9.80;99.90;;;;;;4966210;28;20203;-81
2022/10/23 04:38:04;;;;;;;10.33;9.63;;;9.80;99.90;;;;;;4953565;28;20285;-82
2022/10/23 04:40:33;;;;;;;11.90;10.90;;;9.80;99.90;;;;;;4961481;28;20214;-79
2022/10/23 04:43:00;;;;;;;7.17;6.47;;;9.80;99.90;;;;;;4946790;28;20319;-84
2022/10/23 04:45:31;;;;;;;11.00;10.07;;;9.80;99.90;;;;;;4957510;28;20199;-82
2022/10/23 04:47:58;;;;;;;7.63;7.00;;;9.70;99.90;;;;;;4965104;28;20198;-84
2022/10/23 04:50:27;;;;;;;6.47;5.87;;;9.70;99.90;;;;;;4971511;28;20385;-82
2022/10/23 04:53:18;;;;;;;6.33;5.30;;;9.70;99.90;;;;;;4963163;28;20210;-83
2022/10/23 04:56:15;;;;;;;7.90;7.20;;;9.60;99.90;;;;;;4990938;28;20243;-82
2022/10/23 04:59:00;;;;;;;7.03;6.33;;;9.60;99.90;;;;;;4974131;28;20202;-83
2022/10/23 05:01:27;;;;;;;6.73;6.10;;;9.60;99.90;;;;;;4959425;28;20215;-82
2022/10/23 05:03:55;;;;;;;5.33;4.83;;;9.60;99.90;;;;;;4955346;28;20242;-82
2022/10/23 05:06:23;;;;;;;5.57;4.97;;;9.50;99.90;;;;;;4965541;28;20198;-82
2022/10/23 05:09:10;;;;;;;5.20;4.80;;;9.50;99.90;;;;;;4957243;28;20256;-82
2022/10/23 05:11:45;;;;;;;4.77;4.37;;;9.50;99.90;;;;;;4962531;28;20230;-82
2022/10/23 05:14:13;;;;;;;5.73;5.13;;;9.50;99.90;;;;;;4951526;28;20199;-83
2022/10/23 05:16:46;;;;;;;5.70;5.10;;;9.50;99.90;;;;;;4958984;28;20205;-82
2022/10/23 05:19:18;;;;;;;5.50;5.00;;;9.60;99.90;;;;;;4973086;28;20187;-82
2022/10/23 05:21:46;;;;;;;6.53;5.70;;;9.60;99.90;;;;;;4973660;28;20226;-82
2022/10/23 05:24:13;;;;;;;5.93;5.33;;;9.60;99.90;;;;;;4958789;28;20242;-82
2022/10/23 05:26:40;;;;;;;6.90;5.63;;;9.60;99.90;;;;;;4957078;28;20260;-82
2022/10/23 05:29:09;;;;;;;6.03;5.43;;;9.60;99.90;;;;;;4954923;28;20325;-82
2022/10/23 05:31:36;;;;;;;6.17;5.57;;;9.50;99.90;;;;;;4949080;28;20238;-83
2022/10/23 05:34:11;;;;;;;6.37;5.87;;;9.50;99.90;;;;;;4966726;28;20198;-82
2022/10/23 05:36:41;;;;;;;8.03;7.37;;;9.50;99.90;;;;;;4963363;28;20209;-83
2022/10/23 05:39:08;;;;;;;8.13;7.43;;;9.50;99.90;;;;;;4967956;28;20289;-82
2022/10/23 05:41:36;;;;;;;7.37;6.87;;;9.50;99.90;;;;;;4972371;28;20221;-83
2022/10/23 05:44:03;;;;;;;8.27;7.63;;;9.50;99.90;;;;;;4969108;28;20232;-82
2022/10/23 05:46:50;;;;;;;8.90;8.20;;;9.50;99.90;;;;;;4953095;28;20281;-82
2022/10/23 05:49:36;;;;;;;13.70;12.70;;;9.50;99.90;;;;;;4959779;28;20205;-81
2022/10/23 05:52:25;;;;;;;15.43;14.43;;;9.50;99.90;;;;;;4967253;28;20220;-82
2022/10/23 05:55:26;;;;;;;14.77;13.87;;;9.50;99.90;;;;;;4921236;28;20259;-81
2022/10/23 05:58:31;;;;;;;14.60;13.70;;;9.50;99.90;;;;;;4979514;28;20198;-81
2022/10/23 06:01:27;;;;;;;15.70;14.70;;;9.60;99.90;;;;;;4953552;28;20791;-80
2022/10/23 06:04:04;;;;;;;15.10;14.20;;;9.60;99.90;;;;;;4957006;28;20222;-82
2022/10/23 06:06:49;;;;;;;9.10;8.37;;;9.60;99.90;;;;;;4946251;28;20673;-81
2022/10/23 06:09:17;;;;;;;7.73;6.37;;;9.60;99.90;;;;;;4965319;28;20208;-81
2022/10/23 06:11:46;;;;;;;6.10;5.60;;;9.60;99.90;;;;;;4964528;28;20206;-81
2022/10/23 06:14:18;;;;;;;7.10;6.50;;;9.60;99.90;;;;;;4964535;28;20203;-81
2022/10/23 06:16:45;;;;;;;8.10;7.40;;;9.70;99.90;;;;;;4968430;28;20194;-81
2022/10/23 06:19:14;;;;;;;6.90;6.23;;;9.70;99.90;;;;;;4963589;28;20289;-81
2022/10/23 06:21:42;;;;;;;8.43;7.83;;;9.70;99.90;;;;;;4948018;28;20226;-82
2022/10/23 06:24:12;;;;;;;5.77;5.27;;;9.70;99.90;;;;;;4948909;28;20217;-81
2022/10/23 06:27:08;;;;;;;8.03;7.33;;;9.80;99.90;;;;;;4955224;28;20284;-81
2022/10/23 06:29:41;;;;;;;7.07;6.47;;;9.90;99.90;;;;;;4958383;28;20219;-81
2022/10/23 06:32:08;;;;;;;9.13;8.43;;;9.90;99.90;;;;;;4949789;28;20199;-81
2022/10/23 06:34:37;;;;;;;15.83;14.80;;;10.00;99.90;;;;;;4952649;28;20241;-82
2022/10/23 06:37:07;;;;;;;7.10;6.37;;;10.10;99.90;;;;;;4961387;28;20698;-81
2022/10/23 06:39:54;;;;;;;9.30;8.60;;;10.10;99.90;;;;;;4956598;28;20304;-81
2022/10/23 06:42:30;;;;;;;7.83;7.17;;;10.20;99.90;;;;;;4963259;28;20727;-82
2022/10/23 06:44:57;;;;;;;7.83;7.23;;;10.30;99.90;;;;;;4961234;28;20707;-81
2022/10/23 06:47:50;;;;;;;6.73;6.13;;;10.40;99.90;;;;;;4949516;28;20211;-83
2022/10/23 06:50:38;;;;;;;5.63;5.13;;;10.40;99.90;;;;;;4954868;28;20272;-82
2022/10/23 06:53:11;;;;;;;13.90;13.00;;;10.50;99.90;;;;;;4961043;28;20215;-82
2022/10/23 06:55:43;;;;;;;9.87;9.17;;;10.50;99.90;;;;;;4954793;28;20203;-81
2022/10/23 06:58:10;;;;;;;10.10;9.40;;;10.60;99.90;;;;;;4962693;28;20202;-80
2022/10/23 07:00:47;;;;;;;14.40;13.50;;;10.80;99.90;;;;;;4962516;28;20312;-80
2022/10/23 07:03:14;;;;;;;12.13;11.33;;;10.80;99.90;;;;;;4954736;28;20203;-83
2022/10/23 07:05:43;;;;;;;13.70;12.83;;;10.90;99.90;;;;;;4965820;28;20222;-82
2022/10/23 07:08:15;;;;;;;12.87;11.97;;;11.00;99.90;;;;;;4970292;28;20219;-82
2022/10/23 07:10:45;;;;;;;6.27;5.20;;;11.20;99.90;;;;;;4968993;28;20651;-84
2022/10/23 07:13:12;;;;;;;5.80;5.20;;;11.30;99.90;;;;;;4966222;28;20201;-82
2022/10/23 07:15:59;;;;;;;5.20;4.70;;;11.40;99.90;;;;;;4969922;28;20700;-84
2022/10/23 07:18:27;;;;;;;8.30;7.50;;;11.60;99.90;;;;;;4951926;28;20254;-83
2022/10/23 07:21:16;;;;;;;13.97;13.07;;;11.80;99.90;;;;;;4989735;28;20669;-82
2022/10/23 07:23:43;;;;;;;12.97;12.17;;;12.00;99.90;;;;;;4968077;28;20227;-80
2022/10/23 07:26:14;;;;;;;12.47;11.70;;;12.20;99.90;;;;;;4966675;28;20208;-81
2022/10/23 07:28:43;;;;;;;10.87;10.07;;;12.30;99.90;;;;;;4954657;28;20295;-82
2022/10/23 07:31:12;;;;;;;10.03;9.30;;;12.50;99.90;;;;;;4965482;28;20224;-83
2022/10/23 07:34:06;;;;;;;8.83;8.23;;;12.70;99.90;;;;;;4944348;28;20228;-83
2022/10/23 07:36:34;;;;;;;8.73;8.13;;;12.80;99.90;;;;;;4954241;28;20324;-83
2022/10/23 07:39:01;;;;;;;8.53;7.93;;;12.90;99.90;;;;;;4968675;28;20203;-82
2022/10/23 07:41:28;;;;;;;7.00;6.50;;;13.00;99.90;;;;;;4946334;28;20228;-82
2022/10/23 07:43:55;;;;;;;6.00;5.50;;;13.10;99.90;;;;;;4967836;28;20206;-82
2022/10/23 07:46:22;;;;;;;5.97;4.70;;;13.30;99.90;;;;;;4963678;28;20198;-82
2022/10/23 07:48:50;;;;;;;4.70;4.30;;;13.50;99.90;;;;;;4965532;28;20195;-83
2022/10/23 07:51:17;;;;;;;11.40;10.50;;;13.70;99.90;;;;;;4964143;28;20289;-83
2022/10/23 07:53:52;;;;;;;11.90;11.20;;;13.90;99.90;;;;;;4961406;28;20189;-82
2022/10/23 07:56:46;;;;;;;12.23;11.53;;;14.10;99.90;;;;;;4936978;28;20283;-83
2022/10/23 07:59:34;;;;;;;11.50;10.70;;;14.30;99.90;;;;;;4937779;28;20208;-83
2022/10/23 08:02:04;;;;;;;11.50;10.70;;;14.30;99.90;;;;;;4948870;28;20212;-83
2022/10/23 08:04:36;;;;;;;11.53;10.83;;;14.50;99.90;;;;;;4951508;28;20247;-83
2022/10/23 08:07:22;;;;;;;4.50;4.10;;;14.70;99.90;;;;;;4953257;28;20215;-81
2022/10/23 08:09:52;;;;;;;5.63;4.87;;;14.70;99.90;;;;;;4961917;28;20224;-82
2022/10/23 08:12:19;;;;;;;4.53;4.00;;;15.00;99.90;;;;;;4952508;28;20206;-82
2022/10/23 08:14:49;;;;;;;5.70;3.77;;;15.30;99.90;;;;;;4956157;28;20201;-84
2022/10/23 08:17:17;;;;;;;3.97;3.67;;;15.50;99.90;;;;;;4969180;28;20205;-84
2022/10/23 08:20:07;;;;;;;3.80;3.50;;;16.00;99.90;;;;;;4975389;28;20267;-84
2022/10/23 08:22:43;;;;;;;3.80;3.40;;;16.30;99.90;;;;;;4976390;28;20205;-87
2022/10/23 08:25:12;;;;;;;5.30;4.90;;;16.60;99.90;;;;;;4980882;28;20235;-85
2022/10/23 08:27:39;;;;;;;3.63;3.17;;;16.60;99.90;;;;;;4968955;28;20218;-80
2022/10/23 08:30:07;;;;;;;4.33;4.00;;;16.50;99.90;;;;;;4965038;28;20233;-81
2022/10/23 08:32:34;;;;;;;3.60;3.30;;;16.40;99.90;;;;;;4955661;28;20303;-81
2022/10/23 08:35:02;;;;;;;4.00;3.60;;;16.20;99.90;;;;;;4964128;28;20195;-80
2022/10/23 08:37:32;;;;;;;6.50;6.10;;;16.10;99.90;;;;;;4960156;28;20277;-81
2022/10/23 08:39:59;;;;;;;8.20;7.50;;;16.10;99.90;;;;;;4967032;28;20481;-81
2022/10/23 08:42:50;;;;;;;3.77;3.47;;;16.30;99.90;;;;;;4959976;28;20705;-82
2022/10/23 08:45:28;;;;;;;3.47;3.20;;;16.60;99.90;;;;;;4959270;28;20260;-81
2022/10/23 08:48:12;;;;;;;4.10;3.70;;;16.70;99.90;;;;;;4952962;28;20627;-81
2022/10/23 08:51:11;;;;;;;5.07;4.67;;;16.60;99.90;;;;;;4953916;28;20236;-82
2022/10/23 08:53:45;;;;;;;3.70;3.40;;;17.00;99.90;;;;;;4951396;28;20199;-81
2022/10/23 08:56:25;;;;;;;3.40;2.97;;;17.20;99.90;;;;;;4955245;28;20192;-81
2022/10/23 08:58:58;;;;;;;3.83;3.27;;;17.80;99.90;;;;;;4953731;28;20206;-81
2022/10/23 09:01:37;;;;;;;5.00;4.60;;;18.20;99.90;;;;;;4952951;28;20246;-83
2022/10/23 09:04:05;;;;;;;5.37;3.50;;;18.30;99.90;;;;;;4951121;28;20200;-83
2022/10/23 09:06:37;;;;;;;3.33;3.03;;;18.50;99.90;;;;;;4967161;28;20192;-82
2022/10/23 09:09:21;;;;;;;6.73;6.33;;;18.70;99.90;;;;;;4954180;28;20674;-82
2022/10/23 09:11:59;;;;;;;4.97;3.77;;;18.90;99.90;;;;;;4955365;28;20198;-82
2022/10/23 09:14:52;;;;;;;6.77;4.17;;;19.00;99.90;;;;;;4956253;28;20197;-82
2022/10/23 09:17:24;;;;;;;4.43;3.00;;;19.30;99.90;;;;;;4955143;28;20286;-81
2022/10/23 09:19:57;;;;;;;8.07;7.57;;;19.40;99.90;;;;;;4951450;28;20221;-83
2022/10/23 09:22:23;;;;;;;3.50;3.27;;;19.50;99.90;;;;;;4952900;28;20264;-79
2022/10/23 09:24:50;;;;;;;2.77;2.60;;;19.50;99.90;;;;;;4967299;28;20216;-79
2022/10/23 09:27:18;;;;;;;2.90;2.70;;;19.50;99.90;;;;;;4956829;28;20616;-80
2022/10/23 09:29:51;;;;;;;5.63;5.23;;;19.60;99.90;;;;;;4960620;28;20233;-79
2022/10/23 09:32:19;;;;;;;3.57;2.70;;;19.60;99.90;;;;;;4969651;28;20213;-79
2022/10/23 09:34:54;;;;;;;2.67;2.47;;;19.50;99.90;;;;;;4959942;28;20202;-79
2022/10/23 09:37:24;;;;;;;3.53;2.60;;;19.40;99.90;;;;;;4959838;28;20202;-79
2022/10/23 09:40:14;;;;;;;2.90;2.70;;;19.30;99.90;;;;;;4962760;28;20228;-79
2022/10/23 09:42:51;;;;;;;2.90;2.70;;;19.30;99.90;;;;;;4935734;28;20202;-79
2022/10/23 09:45:24;;;;;;;2.40;2.20;;;19.20;99.90;;;;;;4967721;28;20210;-79
2022/10/23 09:48:04;;;;;;;3.77;3.47;;;19.20;99.90;;;;;;4963866;28;20220;-79
2022/10/23 09:50:31;;;;;;;5.67;5.17;;;19.20;99.90;;;;;;4970472;28;20225;-79
2022/10/23 09:52:59;;;;;;;6.80;6.20;;;19.20;99.90;;;;;;4968598;28;20198;-79
2022/10/23 09:55:26;;;;;;;6.70;6.30;;;19.20;99.90;;;;;;4956612;28;20738;-79
2022/10/23 09:57:54;;;;;;;6.53;6.10;;;19.20;99.90;;;;;;4963289;28;20190;-79
2022/10/23 10:00:25;;;;;;;5.20;4.90;;;19.10;99.90;;;;;;4956819;28;20230;-79
2022/10/23 10:02:58;;;;;;;2.23;2.13;;;19.00;99.90;;;;;;4956700;28;20206;-79
2022/10/23 10:05:38;;;;;;;3.27;2.40;;;18.90;99.90;;;;;;4953506;28;20224;-79
2022/10/23 10:08:17;;;;;;;3.47;2.43;;;18.90;99.90;;;;;;4957795;28;20210;-79
2022/10/23 10:10:49;;;;;;;2.60;2.40;;;18.90;99.90;;;;;;4966626;28;20708;-79
2022/10/23 10:13:32;;;;;;;2.40;2.30;;;18.80;99.90;;;;;;4957942;28;20623;-79
2022/10/23 10:16:06;;;;;;;2.60;2.40;;;18.70;99.90;;;;;;4967427;28;20189;-80
2022/10/23 10:18:40;;;;;;;2.60;2.40;;;18.70;99.90;;;;;;4967929;28;20203;-80
2022/10/23 10:21:15;;;;;;;2.50;2.30;;;18.70;99.90;;;;;;4963160;28;20283;-80
2022/10/23 10:23:47;;;;;;;2.57;2.37;;;18.80;99.90;;;;;;4966763;28;20212;-80
2022/10/23 10:26:30;;;;;;;2.37;2.23;;;19.00;99.90;;;;;;4963746;28;20320;-79
2022/10/23 10:29:09;;;;;;;3.20;2.50;;;19.10;99.90;;;;;;4961925;28;20677;-80
2022/10/23 10:31:48;;;;;;;7.03;6.63;;;19.20;99.90;;;;;;4945294;28;20790;-80
2022/10/23 10:34:23;;;;;;;8.17;7.67;;;19.20;99.90;;;;;;4959939;28;20206;-80
2022/10/23 10:36:55;;;;;;;6.87;6.37;;;19.10;99.90;;;;;;4960032;28;20205;-80
2022/10/23 10:39:34;;;;;;;6.57;6.17;;;19.10;99.90;;;;;;4961552;28;20209;-80
2022/10/23 10:42:28;;;;;;;6.73;6.23;;;19.10;99.90;;;;;;4958655;28;20498;-79
2022/10/23 10:45:14;;;;;;;5.80;5.40;;;19.00;99.90;;;;;;4968240;28;20784;-80
2022/10/23 10:47:54;;;;;;;5.60;5.30;;;19.00;99.90;;;;;;4958660;28;20202;-80
2022/10/23 10:50:30;;;;;;;5.20;4.90;;;19.00;99.90;;;;;;4960847;28;20217;-79
2022/10/23 10:53:22;;;;;;;5.70;5.40;;;19.10;99.90;;;;;;4959476;28;20213;-79
2022/10/23 10:55:53;;;;;;;5.80;5.40;;;19.20;99.90;;;;;;4962704;28;20196;-79
2022/10/23 10:58:25;;;;;;;5.10;4.80;;;19.30;99.90;;;;;;4961256;28;20256;-79
2022/10/23 11:00:56;;;;;;;5.23;4.93;;;19.40;99.90;;;;;;4960799;28;20234;-79
2022/10/23 11:03:33;;;;;;;5.40;5.00;;;19.60;99.90;;;;;;4965628;28;20209;-82
2022/10/23 11:06:02;;;;;;;5.63;5.33;;;19.70;99.90;;;;;;4960704;28;20300;-82
2022/10/23 11:08:35;;;;;;;4.00;3.80;;;19.80;99.90;;;;;;4954074;28;20350;-82
2022/10/23 11:11:08;;;;;;;4.27;4.07;;;19.80;99.90;;;;;;4966788;28;20577;-82
2022/10/23 11:13:36;;;;;;;4.70;4.40;;;19.70;99.90;;;;;;4950599;28;20213;-81
2022/10/23 11:16:14;;;;;;;3.93;3.73;;;19.70;99.90;;;;;;4969165;28;20203;-81
2022/10/23 11:18:51;;;;;;;2.40;2.30;;;19.70;99.90;;;;;;4961912;28;20198;-84
2022/10/23 11:21:27;;;;;;;2.80;2.60;;;19.60;99.90;;;;;;4967230;28;20715;-83
2022/10/23 11:24:12;;;;;;;4.53;4.23;;;19.60;99.90;;;;;;4958142;28;20206;-82
2022/10/23 11:26:51;;;;;;;5.67;5.37;;;19.50;99.90;;;;;;4951969;28;20218;-79
2022/10/23 11:29:47;;;;;;;6.57;6.17;;;19.50;99.90;;;;;;4948304;28;20729;-79
2022/10/23 11:32:43;;;;;;;7.17;6.57;;;19.50;99.90;;;;;;4965004;28;20212;-77
2022/10/23 11:35:42;;;;;;;6.40;5.90;;;19.70;99.90;;;;;;4955866;28;20237;-79
2022/10/23 11:38:16;;;;;;;5.43;5.07;;;19.90;99.90;;;;;;4966209;28;20210;-78
2022/10/23 11:40:45;;;;;;;5.10;4.73;;;20.00;99.90;;;;;;4956874;28;20218;-79
2022/10/23 11:43:12;;;;;;;6.30;5.90;;;20.20;99.90;;;;;;4958872;28;20636;-79
2022/10/23 11:45:40;;;;;;;4.70;4.40;;;20.30;99.90;;;;;;4959047;28;20578;-82
2022/10/23 11:48:21;;;;;;;5.70;5.30;;;20.40;99.90;;;;;;4956551;28;20252;-83
2022/10/23 11:50:55;;;;;;;5.63;5.33;;;20.50;99.90;;;;;;4965678;28;20217;-83
2022/10/23 11:53:36;;;;;;;4.60;4.30;;;20.50;99.90;;;;;;4959837;28;20207;-82
2022/10/23 11:56:06;;;;;;;5.10;4.80;;;20.70;99.90;;;;;;4983477;28;20202;-82
2022/10/23 11:58:45;;;;;;;4.47;4.20;;;20.70;99.90;;;;;;4967848;28;20620;-83
2022/10/23 12:01:39;;;;;;;2.33;2.23;;;20.70;99.90;;;;;;4965634;28;20219;-83
2022/10/23 12:04:20;;;;;;;2.27;2.17;;;20.90;99.90;;;;;;4947815;28;20207;-82
2022/10/23 12:06:51;;;;;;;2.20;2.00;;;20.90;99.90;;;;;;4970826;28;20208;-82
2022/10/23 12:09:27;;;;;;;2.10;2.00;;;21.00;99.90;;;;;;4951683;28;20199;-82
2022/10/23 12:12:28;;;;;;;5.10;4.80;;;21.10;99.90;;;;;;4964892;28;20198;-82
2022/10/23 12:15:06;;;;;;;6.27;5.97;;;21.20;99.90;;;;;;4966081;28;20670;-83
2022/10/23 12:17:36;;;;;;;5.60;5.30;;;21.30;99.90;;;;;;4953096;28;20211;-82
2022/10/23 12:20:31;;;;;;;4.20;4.00;;;21.30;99.90;;;;;;4964286;28;20268;-82
2022/10/23 12:23:17;;;;;;;5.67;5.37;;;21.40;99.90;;;;;;4959445;28;20214;-83
2022/10/23 12:26:14;;;;;;;4.77;4.57;;;21.50;99.90;;;;;;4951719;28;20294;-82
2022/10/23 12:37:55;;;;;;;;;;;;;;;;;;;;;
2022/10/23 12:40:33;;;;;;;5.40;5.10;;;21.60;99.90;;;;;;4901454;28;20230;-82
2022/10/23 12:43:01;;;;;;;5.00;4.60;;;21.60;99.90;;;;;;4942372;28;20744;-82
2022/10/23 12:45:30;;;;;;;4.67;4.37;;;21.70;99.90;;;;;;4952892;28;20221;-83
2022/10/23 12:47:57;;;;;;;6.60;6.20;;;21.70;99.90;;;;;;4950358;28;20222;-83
2022/10/23 12:50:26;;;;;;;4.97;4.67;;;21.80;99.90;;;;;;4955103;28;20301;-81
2022/10/23 12:52:55;;;;;;;5.60;5.27;;;21.70;99.90;;;;;;4957871;28;20212;-83
2022/10/23 12:55:23;;;;;;;7.23;6.83;;;21.60;99.90;;;;;;4970073;28;20206;-83
2022/10/23 13:02:13;;;;;;;5.50;5.20;;;21.50;99.90;;;;;;5107894;23;20240;-83
2022/10/23 13:04:41;;;;;;;7.63;7.23;;;21.30;99.90;;;;;;5010031;28;20200;-82
2022/10/23 13:07:09;;;;;;;8.60;8.10;;;21.30;99.90;;;;;;5011926;28;20220;-82
2022/10/23 13:09:42;;;;;;;7.00;6.60;;;21.30;99.90;;;;;;5011251;28;20216;-82
2022/10/23 13:12:23;;;;;;;7.77;7.33;;;21.20;99.90;;;;;;5006014;28;20201;-82
2022/10/23 13:15:02;;;;;;;8.10;7.50;;;21.10;99.90;;;;;;5023158;28;20230;-81
2022/10/23 13:17:39;;;;;;;7.43;6.93;;;21.10;99.90;;;;;;4997976;28;20197;-81
2022/10/23 13:20:26;;;;;;;6.50;6.10;;;21.00;99.90;;;;;;5004104;28;20227;-81
2022/10/23 13:22:58;;;;;;;6.50;6.10;;;20.90;99.90;;;;;;5016944;28;20209;-81
2022/10/23 13:38:10;;;;;;;;;;;;;;;;;;;;;
2022/10/23 13:45:23;;;;;;;7.30;6.80;;;21.50;99.90;;;;;;4927686;28;20236;-82
2022/10/23 14:11:11;;;;;;;4.03;3.70;;;20.80;99.90;;;;;;5012074;28;20307;-80
2022/10/23 14:13:38;;;;;;;4.47;4.00;;;20.60;99.90;;;;;;5003800;28;20227;-81